sensor_id;sensor_type;location;lat;lon;timestamp;temperature;humidity
37380;DHT22;23252;-33.992;18.480;2023-04-29T00:01:37;16.80;99.90
37380;DHT22;23252;-33.992;18.480;2023-04-29T00:04:04;16.80;99.90
37380;DHT22;23252;-33.992;18.480;2023-04-29T00:06:30;16.80;99.90
37380;DHT22;23252;-33.992;18.480;2023-04-29T00:08:57;16.80;99.90
37380;DHT22;23252;-33.992;18.480;2023-04-29T00:11:23;16.80;99.90
37380;DHT22;23252;-33.992;18.480;2023-04-29T00:13:50;16.90;99.90
37380;DHT22;23252;-33.992;18.480;2023-04-29T00:16:16;16.80;99.90
37380;DHT22;23252;-33.992;18.480;2023-04-29T00:18:43;16.80;99.90
37380;DHT22;23252;-33.992;18.480;2023-04-29T00:21:09;16.80;99.90
37380;DHT22;23252;-33.992;18.480;2023-04-29T00:23:36;16.80;99.90
37380;DHT22;23252;-33.992;18.480;2023-04-29T00:26:03;16.70;99.90
37380;DHT22;23252;-33.992;18.480;2023-04-29T00:28:29;16.70;99.90
37380;DHT22;23252;-33.992;18.480;2023-04-29T00:30:56;16.70;99.90
37380;DHT22;23252;-33.992;18.480;2023-04-29T00:33:23;16.60;99.90
37380;DHT22;23252;-33.992;18.480;2023-04-29T00:35:50;16.60;99.90
37380;DHT22;23252;-33.992;18.480;2023-04-29T00:38:17;16.60;99.90
37380;DHT22;23252;-33.992;18.480;2023-04-29T00:40:44;16.60;99.90
37380;DHT22;23252;-33.992;18.480;2023-04-29T00:43:10;16.60;99.90
37380;DHT22;23252;-33.992;18.480;2023-04-29T00:45:37;16.60;99.90
37380;DHT22;23252;-33.992;18.480;2023-04-29T00:48:03;16.60;99.90
37380;DHT22;23252;-33.992;18.480;2023-04-29T00:50:30;16.60;99.90
37380;DHT22;23252;-33.992;18.480;2023-04-29T00:52:57;16.60;99.90
37380;DHT22;23252;-33.992;18.480;2023-04-29T00:55:24;16.60;99.90
37380;DHT22;23252;-33.992;18.480;2023-04-29T00:57:52;16.60;99.90
37380;DHT22;23252;-33.992;18.480;2023-04-29T01:00:18;16.60;99.90
37380;DHT22;23252;-33.992;18.480;2023-04-29T01:02:45;16.60;99.90
37380;DHT22;23252;-33.992;18.480;2023-04-29T01:05:13;16.50;99.90
37380;DHT22;23252;-33.992;18.480;2023-04-29T01:08:21;16.40;99.90
37380;DHT22;23252;-33.992;18.480;2023-04-29T01:16:10;16.20;99.90
37380;DHT22;23252;-33.992;18.480;2023-04-29T01:18:41;16.20;99.90
37380;DHT22;23252;-33.992;18.480;2023-04-29T01:21:08;16.20;99.90
37380;DHT22;23252;-33.992;18.480;2023-04-29T01:23:35;16.20;99.90
37380;DHT22;23252;-33.992;18.480;2023-04-29T01:26:01;16.20;99.90
37380;DHT22;23252;-33.992;18.480;2023-04-29T01:31:07;16.20;99.90
37380;DHT22;23252;-33.992;18.480;2023-04-29T01:33:50;16.20;99.90
37380;DHT22;23252;-33.992;18.480;2023-04-29T01:41:56;16.30;99.90
37380;DHT22;23252;-33.992;18.480;2023-04-29T01:44:28;16.30;99.90
37380;DHT22;23252;-33.992;18.480;2023-04-29T01:46:55;16.20;99.90
37380;DHT22;23252;-33.992;18.480;2023-04-29T01:49:27;16.20;99.90
37380;DHT22;23252;-33.992;18.480;2023-04-29T01:51:54;16.20;99.90
37380;DHT22;23252;-33.992;18.480;2023-04-29T01:54:21;16.20;99.90
37380;DHT22;23252;-33.992;18.480;2023-04-29T01:56:48;16.20;99.90
37380;DHT22;23252;-33.992;18.480;2023-04-29T01:59:15;16.20;99.90
37380;DHT22;23252;-33.992;18.480;2023-04-29T02:01:42;16.20;99.90
37380;DHT22;23252;-33.992;18.480;2023-04-29T02:04:09;16.20;99.90
37380;DHT22;23252;-33.992;18.480;2023-04-29T02:06:35;16.20;99.90
37380;DHT22;23252;-33.992;18.480;2023-04-29T02:09:01;16.20;99.90
37380;DHT22;23252;-33.992;18.480;2023-04-29T02:11:28;16.30;99.90
37380;DHT22;23252;-33.992;18.480;2023-04-29T02:13:55;16.30;99.90
37380;DHT22;23252;-33.992;18.480;2023-04-29T02:16:21;16.20;99.90
37380;DHT22;23252;-33.992;18.480;2023-04-29T02:18:48;16.20;99.90
37380;DHT22;23252;-33.992;18.480;2023-04-29T02:21:14;16.20;99.90
37380;DHT22;23252;-33.992;18.480;2023-04-29T02:23:41;16.30;99.90
37380;DHT22;23252;-33.992;18.480;2023-04-29T02:26:07;16.30;99.90
37380;DHT22;23252;-33.992;18.480;2023-04-29T02:28:35;16.30;99.90
37380;DHT22;23252;-33.992;18.480;2023-04-29T02:31:02;16.30;99.90
37380;DHT22;23252;-33.992;18.480;2023-04-29T02:33:28;16.30;99.90
37380;DHT22;23252;-33.992;18.480;2023-04-29T02:35:55;16.30;99.90
37380;DHT22;23252;-33.992;18.480;2023-04-29T02:38:21;16.30;99.90
37380;DHT22;23252;-33.992;18.480;2023-04-29T02:40:48;16.30;99.90
37380;DHT22;23252;-33.992;18.480;2023-04-29T02:43:15;16.20;99.90
37380;DHT22;23252;-33.992;18.480;2023-04-29T02:45:45;16.20;99.90
37380;DHT22;23252;-33.992;18.480;2023-04-29T02:48:11;16.20;99.90
37380;DHT22;23252;-33.992;18.480;2023-04-29T02:50:38;16.20;99.90
37380;DHT22;23252;-33.992;18.480;2023-04-29T02:53:04;16.20;99.90
37380;DHT22;23252;-33.992;18.480;2023-04-29T02:55:31;16.20;99.90
37380;DHT22;23252;-33.992;18.480;2023-04-29T02:57:57;16.20;99.90
37380;DHT22;23252;-33.992;18.480;2023-04-29T03:00:24;16.20;99.90
37380;DHT22;23252;-33.992;18.480;2023-04-29T03:02:50;16.20;99.90
37380;DHT22;23252;-33.992;18.480;2023-04-29T03:05:17;16.10;99.90
37380;DHT22;23252;-33.992;18.480;2023-04-29T03:07:44;16.10;99.90
37380;DHT22;23252;-33.992;18.480;2023-04-29T03:10:10;16.10;99.90
37380;DHT22;23252;-33.992;18.480;2023-04-29T03:12:37;16.10;99.90
37380;DHT22;23252;-33.992;18.480;2023-04-29T03:15:06;16.00;99.90
37380;DHT22;23252;-33.992;18.480;2023-04-29T03:17:32;16.00;99.90
37380;DHT22;23252;-33.992;18.480;2023-04-29T03:19:59;16.00;99.90
37380;DHT22;23252;-33.992;18.480;2023-04-29T03:22:26;16.00;99.90
37380;DHT22;23252;-33.992;18.480;2023-04-29T03:24:53;16.00;99.90
37380;DHT22;23252;-33.992;18.480;2023-04-29T03:27:19;16.00;99.90
37380;DHT22;23252;-33.992;18.480;2023-04-29T03:29:45;16.00;99.90
37380;DHT22;23252;-33.992;18.480;2023-04-29T03:32:12;16.10;99.90
37380;DHT22;23252;-33.992;18.480;2023-04-29T03:34:38;16.10;99.90
37380;DHT22;23252;-33.992;18.480;2023-04-29T03:37:05;16.00;99.90
37380;DHT22;23252;-33.992;18.480;2023-04-29T03:39:32;16.00;99.90
37380;DHT22;23252;-33.992;18.480;2023-04-29T03:41:58;16.00;99.90
37380;DHT22;23252;-33.992;18.480;2023-04-29T03:44:25;16.00;99.90
37380;DHT22;23252;-33.992;18.480;2023-04-29T03:46:52;16.00;99.90
37380;DHT22;23252;-33.992;18.480;2023-04-29T03:49:18;16.10;99.90
37380;DHT22;23252;-33.992;18.480;2023-04-29T03:51:44;16.10;99.90
37380;DHT22;23252;-33.992;18.480;2023-04-29T03:54:12;16.10;99.90
37380;DHT22;23252;-33.992;18.480;2023-04-29T03:56:38;16.10;99.90
37380;DHT22;23252;-33.992;18.480;2023-04-29T03:59:06;16.10;99.90
37380;DHT22;23252;-33.992;18.480;2023-04-29T04:01:32;16.10;99.90
37380;DHT22;23252;-33.992;18.480;2023-04-29T04:03:59;16.00;99.90
37380;DHT22;23252;-33.992;18.480;2023-04-29T04:06:25;16.00;99.90
37380;DHT22;23252;-33.992;18.480;2023-04-29T04:08:52;16.00;99.90
37380;DHT22;23252;-33.992;18.480;2023-04-29T04:11:18;16.00;99.90
37380;DHT22;23252;-33.992;18.480;2023-04-29T04:13:45;16.00;99.90
37380;DHT22;23252;-33.992;18.480;2023-04-29T04:16:11;16.10;99.90
37380;DHT22;23252;-33.992;18.480;2023-04-29T04:18:38;16.10;99.90
37380;DHT22;23252;-33.992;18.480;2023-04-29T04:21:09;16.10;99.90
37380;DHT22;23252;-33.992;18.480;2023-04-29T04:23:36;16.10;99.90
37380;DHT22;23252;-33.992;18.480;2023-04-29T04:26:05;16.10;99.90
37380;DHT22;23252;-33.992;18.480;2023-04-29T04:28:32;16.10;99.90
37380;DHT22;23252;-33.992;18.480;2023-04-29T04:30:58;16.10;99.90
37380;DHT22;23252;-33.992;18.480;2023-04-29T04:33:25;16.10;99.90
37380;DHT22;23252;-33.992;18.480;2023-04-29T04:35:52;16.10;99.90
37380;DHT22;23252;-33.992;18.480;2023-04-29T04:38:18;16.10;99.90
37380;DHT22;23252;-33.992;18.480;2023-04-29T04:40:45;16.10;99.90
37380;DHT22;23252;-33.992;18.480;2023-04-29T04:43:11;16.10;99.90
37380;DHT22;23252;-33.992;18.480;2023-04-29T04:45:38;16.10;99.90
37380;DHT22;23252;-33.992;18.480;2023-04-29T04:48:04;16.20;99.90
37380;DHT22;23252;-33.992;18.480;2023-04-29T04:50:31;16.20;99.90
37380;DHT22;23252;-33.992;18.480;2023-04-29T04:52:58;16.20;99.90
37380;DHT22;23252;-33.992;18.480;2023-04-29T04:55:24;16.10;99.90
37380;DHT22;23252;-33.992;18.480;2023-04-29T04:57:51;16.10;99.90
37380;DHT22;23252;-33.992;18.480;2023-04-29T05:00:17;16.00;99.90
37380;DHT22;23252;-33.992;18.480;2023-04-29T05:02:44;16.00;99.90
37380;DHT22;23252;-33.992;18.480;2023-04-29T05:05:10;16.00;99.90
37380;DHT22;23252;-33.992;18.480;2023-04-29T05:07:37;16.00;99.90
37380;DHT22;23252;-33.992;18.480;2023-04-29T05:10:04;16.00;99.90
37380;DHT22;23252;-33.992;18.480;2023-04-29T05:12:31;16.00;99.90
37380;DHT22;23252;-33.992;18.480;2023-04-29T05:15:00;16.00;99.90
37380;DHT22;23252;-33.992;18.480;2023-04-29T05:17:27;16.00;99.90
37380;DHT22;23252;-33.992;18.480;2023-04-29T05:19:53;15.90;99.90
37380;DHT22;23252;-33.992;18.480;2023-04-29T05:22:20;15.90;99.90
37380;DHT22;23252;-33.992;18.480;2023-04-29T05:24:46;15.80;99.90
37380;DHT22;23252;-33.992;18.480;2023-04-29T05:27:17;15.80;99.90
37380;DHT22;23252;-33.992;18.480;2023-04-29T05:29:44;15.80;99.90
37380;DHT22;23252;-33.992;18.480;2023-04-29T05:32:11;15.80;99.90
37380;DHT22;23252;-33.992;18.480;2023-04-29T05:34:38;15.70;99.90
37380;DHT22;23252;-33.992;18.480;2023-04-29T05:37:05;15.70;99.90
37380;DHT22;23252;-33.992;18.480;2023-04-29T05:39:31;15.70;99.90
37380;DHT22;23252;-33.992;18.480;2023-04-29T05:41:58;15.70;99.90
37380;DHT22;23252;-33.992;18.480;2023-04-29T05:44:24;15.60;99.90
37380;DHT22;23252;-33.992;18.480;2023-04-29T05:46:51;15.60;99.90
37380;DHT22;23252;-33.992;18.480;2023-04-29T05:49:17;15.60;99.90
37380;DHT22;23252;-33.992;18.480;2023-04-29T05:51:44;15.60;99.90
37380;DHT22;23252;-33.992;18.480;2023-04-29T05:54:10;15.50;99.90
37380;DHT22;23252;-33.992;18.480;2023-04-29T05:56:37;15.50;99.90
37380;DHT22;23252;-33.992;18.480;2023-04-29T05:59:03;15.60;99.90
37380;DHT22;23252;-33.992;18.480;2023-04-29T06:01:30;15.60;99.90
37380;DHT22;23252;-33.992;18.480;2023-04-29T06:03:57;15.60;99.90
37380;DHT22;23252;-33.992;18.480;2023-04-29T06:06:24;15.60;99.90
37380;DHT22;23252;-33.992;18.480;2023-04-29T06:08:50;15.60;99.90
37380;DHT22;23252;-33.992;18.480;2023-04-29T06:11:18;15.60;99.90
37380;DHT22;23252;-33.992;18.480;2023-04-29T06:13:44;15.60;99.90
37380;DHT22;23252;-33.992;18.480;2023-04-29T06:16:11;15.60;99.90
37380;DHT22;23252;-33.992;18.480;2023-04-29T06:18:38;15.60;99.90
37380;DHT22;23252;-33.992;18.480;2023-04-29T06:21:04;15.70;99.90
37380;DHT22;23252;-33.992;18.480;2023-04-29T06:23:31;15.70;99.90
37380;DHT22;23252;-33.992;18.480;2023-04-29T06:25:58;15.80;99.90
37380;DHT22;23252;-33.992;18.480;2023-04-29T06:28:24;15.80;99.90
37380;DHT22;23252;-33.992;18.480;2023-04-29T06:30:50;15.80;99.90
37380;DHT22;23252;-33.992;18.480;2023-04-29T06:33:17;15.80;99.90
37380;DHT22;23252;-33.992;18.480;2023-04-29T06:35:43;15.80;99.90
37380;DHT22;23252;-33.992;18.480;2023-04-29T06:38:10;15.90;99.90
37380;DHT22;23252;-33.992;18.480;2023-04-29T06:40:36;16.00;99.90
37380;DHT22;23252;-33.992;18.480;2023-04-29T06:43:03;16.00;99.90
37380;DHT22;23252;-33.992;18.480;2023-04-29T06:45:29;16.10;99.90
37380;DHT22;23252;-33.992;18.480;2023-04-29T06:47:56;16.10;99.90
37380;DHT22;23252;-33.992;18.480;2023-04-29T06:50:23;16.10;99.90
37380;DHT22;23252;-33.992;18.480;2023-04-29T06:52:49;16.30;99.90
37380;DHT22;23252;-33.992;18.480;2023-04-29T06:55:16;16.30;99.90
37380;DHT22;23252;-33.992;18.480;2023-04-29T06:57:42;16.50;99.90
37380;DHT22;23252;-33.992;18.480;2023-04-29T07:00:09;16.60;99.90
37380;DHT22;23252;-33.992;18.480;2023-04-29T07:02:36;16.60;99.90
37380;DHT22;23252;-33.992;18.480;2023-04-29T07:05:03;16.70;99.90
37380;DHT22;23252;-33.992;18.480;2023-04-29T07:07:30;16.70;99.90
37380;DHT22;23252;-33.992;18.480;2023-04-29T07:09:57;16.70;99.90
37380;DHT22;23252;-33.992;18.480;2023-04-29T07:12:23;16.70;99.90
37380;DHT22;23252;-33.992;18.480;2023-04-29T07:14:50;16.60;99.90
37380;DHT22;23252;-33.992;18.480;2023-04-29T07:17:16;16.70;99.90
37380;DHT22;23252;-33.992;18.480;2023-04-29T07:19:43;16.60;99.90
37380;DHT22;23252;-33.992;18.480;2023-04-29T07:22:09;16.70;99.90
37380;DHT22;23252;-33.992;18.480;2023-04-29T07:24:36;16.70;99.90
37380;DHT22;23252;-33.992;18.480;2023-04-29T07:27:02;16.80;99.90
37380;DHT22;23252;-33.992;18.480;2023-04-29T07:29:29;16.80;99.90
37380;DHT22;23252;-33.992;18.480;2023-04-29T07:31:56;16.80;99.90
37380;DHT22;23252;-33.992;18.480;2023-04-29T07:34:22;16.80;99.90
37380;DHT22;23252;-33.992;18.480;2023-04-29T07:36:49;16.80;99.90
37380;DHT22;23252;-33.992;18.480;2023-04-29T07:39:15;16.90;99.90
37380;DHT22;23252;-33.992;18.480;2023-04-29T07:41:43;16.80;99.90
37380;DHT22;23252;-33.992;18.480;2023-04-29T07:44:09;16.90;99.90
37380;DHT22;23252;-33.992;18.480;2023-04-29T07:46:36;16.90;99.90
37380;DHT22;23252;-33.992;18.480;2023-04-29T07:49:02;17.10;99.90
37380;DHT22;23252;-33.992;18.480;2023-04-29T07:51:29;17.10;99.90
37380;DHT22;23252;-33.992;18.480;2023-04-29T07:53:56;17.20;99.90
37380;DHT22;23252;-33.992;18.480;2023-04-29T07:56:23;17.20;99.90
37380;DHT22;23252;-33.992;18.480;2023-04-29T07:58:49;17.30;99.90
37380;DHT22;23252;-33.992;18.480;2023-04-29T08:01:16;17.30;99.90
37380;DHT22;23252;-33.992;18.480;2023-04-29T08:03:42;17.30;99.90
37380;DHT22;23252;-33.992;18.480;2023-04-29T08:06:09;17.30;99.90
37380;DHT22;23252;-33.992;18.480;2023-04-29T08:08:36;17.40;99.90
37380;DHT22;23252;-33.992;18.480;2023-04-29T08:11:02;17.40;99.90
37380;DHT22;23252;-33.992;18.480;2023-04-29T08:13:31;17.50;99.90
37380;DHT22;23252;-33.992;18.480;2023-04-29T08:15:58;17.50;99.90
37380;DHT22;23252;-33.992;18.480;2023-04-29T08:18:24;17.60;99.90
37380;DHT22;23252;-33.992;18.480;2023-04-29T08:20:51;17.60;99.90
37380;DHT22;23252;-33.992;18.480;2023-04-29T08:23:18;17.60;99.90
37380;DHT22;23252;-33.992;18.480;2023-04-29T08:25:44;17.70;99.90
37380;DHT22;23252;-33.992;18.480;2023-04-29T08:28:11;17.80;99.90
37380;DHT22;23252;-33.992;18.480;2023-04-29T08:30:39;18.00;99.90
37380;DHT22;23252;-33.992;18.480;2023-04-29T08:33:05;18.30;99.90
37380;DHT22;23252;-33.992;18.480;2023-04-29T08:35:32;18.40;99.90
37380;DHT22;23252;-33.992;18.480;2023-04-29T08:37:59;18.40;99.90
37380;DHT22;23252;-33.992;18.480;2023-04-29T08:40:25;18.40;99.90
37380;DHT22;23252;-33.992;18.480;2023-04-29T08:42:52;18.40;99.90
37380;DHT22;23252;-33.992;18.480;2023-04-29T08:45:20;18.50;99.90
37380;DHT22;23252;-33.992;18.480;2023-04-29T08:47:48;18.50;99.90
37380;DHT22;23252;-33.992;18.480;2023-04-29T08:50:16;18.40;99.90
37380;DHT22;23252;-33.992;18.480;2023-04-29T08:52:43;18.40;99.90
37380;DHT22;23252;-33.992;18.480;2023-04-29T08:55:09;18.50;99.90
37380;DHT22;23252;-33.992;18.480;2023-04-29T08:57:36;18.60;99.90
37380;DHT22;23252;-33.992;18.480;2023-04-29T09:00:06;18.60;99.90
37380;DHT22;23252;-33.992;18.480;2023-04-29T09:02:43;18.60;99.90
37380;DHT22;23252;-33.992;18.480;2023-04-29T09:05:10;18.60;99.90
37380;DHT22;23252;-33.992;18.480;2023-04-29T09:07:41;18.80;99.90
37380;DHT22;23252;-33.992;18.480;2023-04-29T09:10:08;18.90;99.90
37380;DHT22;23252;-33.992;18.480;2023-04-29T09:12:35;19.00;99.90
37380;DHT22;23252;-33.992;18.480;2023-04-29T09:15:03;19.00;99.90
37380;DHT22;23252;-33.992;18.480;2023-04-29T09:17:43;19.00;99.90
37380;DHT22;23252;-33.992;18.480;2023-04-29T09:22:53;18.80;99.90
37380;DHT22;23252;-33.992;18.480;2023-04-29T09:25:20;18.70;99.90
37380;DHT22;23252;-33.992;18.480;2023-04-29T09:27:47;18.60;99.90
37380;DHT22;23252;-33.992;18.480;2023-04-29T09:30:14;18.60;99.90
37380;DHT22;23252;-33.992;18.480;2023-04-29T09:32:42;18.50;99.90
37380;DHT22;23252;-33.992;18.480;2023-04-29T09:35:26;18.40;99.90
37380;DHT22;23252;-33.992;18.480;2023-04-29T09:38:08;18.40;99.90
37380;DHT22;23252;-33.992;18.480;2023-04-29T09:40:35;18.40;99.90
37380;DHT22;23252;-33.992;18.480;2023-04-29T09:43:02;18.50;99.90
37380;DHT22;23252;-33.992;18.480;2023-04-29T09:45:37;18.80;99.90
37380;DHT22;23252;-33.992;18.480;2023-04-29T09:48:04;19.10;99.90
37380;DHT22;23252;-33.992;18.480;2023-04-29T09:50:31;19.40;99.90
37380;DHT22;23252;-33.992;18.480;2023-04-29T09:52:59;19.60;99.90
37380;DHT22;23252;-33.992;18.480;2023-04-29T09:55:26;19.70;99.90
37380;DHT22;23252;-33.992;18.480;2023-04-29T09:57:53;19.60;99.90
37380;DHT22;23252;-33.992;18.480;2023-04-29T10:00:19;19.50;99.90
37380;DHT22;23252;-33.992;18.480;2023-04-29T10:02:47;19.40;99.90
37380;DHT22;23252;-33.992;18.480;2023-04-29T10:05:14;19.30;99.90
37380;DHT22;23252;-33.992;18.480;2023-04-29T10:07:41;19.20;99.90
37380;DHT22;23252;-33.992;18.480;2023-04-29T10:10:09;19.20;99.90
37380;DHT22;23252;-33.992;18.480;2023-04-29T10:12:36;19.10;99.90
37380;DHT22;23252;-33.992;18.480;2023-04-29T10:15:26;19.00;99.90
37380;DHT22;23252;-33.992;18.480;2023-04-29T10:18:16;19.00;99.90
37380;DHT22;23252;-33.992;18.480;2023-04-29T10:20:46;19.00;99.90
37380;DHT22;23252;-33.992;18.480;2023-04-29T10:23:14;19.00;99.90
37380;DHT22;23252;-33.992;18.480;2023-04-29T10:25:42;19.00;99.90
37380;DHT22;23252;-33.992;18.480;2023-04-29T10:28:11;19.10;99.90
37380;DHT22;23252;-33.992;18.480;2023-04-29T10:30:43;19.20;99.90
37380;DHT22;23252;-33.992;18.480;2023-04-29T10:33:15;19.20;99.90
37380;DHT22;23252;-33.992;18.480;2023-04-29T10:35:43;19.20;99.90
37380;DHT22;23252;-33.992;18.480;2023-04-29T10:38:23;19.20;99.90
37380;DHT22;23252;-33.992;18.480;2023-04-29T10:40:52;19.10;99.90
37380;DHT22;23252;-33.992;18.480;2023-04-29T10:43:25;19.10;99.90
37380;DHT22;23252;-33.992;18.480;2023-04-29T10:46:23;19.30;99.90
37380;DHT22;23252;-33.992;18.480;2023-04-29T10:49:02;19.50;99.90
37380;DHT22;23252;-33.992;18.480;2023-04-29T10:51:33;19.60;99.90
37380;DHT22;23252;-33.992;18.480;2023-04-29T10:54:09;19.70;99.90
37380;DHT22;23252;-33.992;18.480;2023-04-29T10:56:40;20.00;99.90
37380;DHT22;23252;-33.992;18.480;2023-04-29T10:59:12;20.10;99.90
37380;DHT22;23252;-33.992;18.480;2023-04-29T11:01:50;20.40;99.90
37380;DHT22;23252;-33.992;18.480;2023-04-29T11:04:18;20.40;99.90
37380;DHT22;23252;-33.992;18.480;2023-04-29T11:06:53;20.50;99.90
37380;DHT22;23252;-33.992;18.480;2023-04-29T11:09:25;20.50;99.90
37380;DHT22;23252;-33.992;18.480;2023-04-29T11:11:55;20.50;99.90
37380;DHT22;23252;-33.992;18.480;2023-04-29T11:14:36;20.50;99.90
37380;DHT22;23252;-33.992;18.480;2023-04-29T11:17:08;20.40;99.90
37380;DHT22;23252;-33.992;18.480;2023-04-29T11:19:39;20.20;99.90
37380;DHT22;23252;-33.992;18.480;2023-04-29T11:22:32;20.10;99.90
37380;DHT22;23252;-33.992;18.480;2023-04-29T11:25:05;20.20;99.90
37380;DHT22;23252;-33.992;18.480;2023-04-29T11:27:37;20.50;99.90
37380;DHT22;23252;-33.992;18.480;2023-04-29T11:30:06;20.70;99.90
37380;DHT22;23252;-33.992;18.480;2023-04-29T11:32:37;20.60;99.90
37380;DHT22;23252;-33.992;18.480;2023-04-29T11:35:17;20.50;99.90
37380;DHT22;23252;-33.992;18.480;2023-04-29T11:37:45;20.60;99.90
37380;DHT22;23252;-33.992;18.480;2023-04-29T11:40:12;20.70;99.90
37380;DHT22;23252;-33.992;18.480;2023-04-29T11:42:47;20.90;99.90
37380;DHT22;23252;-33.992;18.480;2023-04-29T11:45:16;21.20;99.90
37380;DHT22;23252;-33.992;18.480;2023-04-29T11:47:44;21.40;99.90
37380;DHT22;23252;-33.992;18.480;2023-04-29T11:50:12;21.80;99.90
37380;DHT22;23252;-33.992;18.480;2023-04-29T11:52:41;22.30;99.90
37380;DHT22;23252;-33.992;18.480;2023-04-29T11:55:10;22.70;99.90
37380;DHT22;23252;-33.992;18.480;2023-04-29T11:57:36;22.70;99.90
37380;DHT22;23252;-33.992;18.480;2023-04-29T12:00:04;22.70;99.90
37380;DHT22;23252;-33.992;18.480;2023-04-29T12:02:31;22.90;99.90
37380;DHT22;23252;-33.992;18.480;2023-04-29T14:15:27;19.50;99.90
37380;DHT22;23252;-33.992;18.480;2023-04-29T14:17:53;19.10;99.90
37380;DHT22;23252;-33.992;18.480;2023-04-29T14:20:20;19.00;99.90
37380;DHT22;23252;-33.992;18.480;2023-04-29T14:22:46;19.00;99.90
37380;DHT22;23252;-33.992;18.480;2023-04-29T14:25:13;19.00;99.90
37380;DHT22;23252;-33.992;18.480;2023-04-29T14:27:40;18.90;99.90
37380;DHT22;23252;-33.992;18.480;2023-04-29T14:30:07;18.80;99.90
37380;DHT22;23252;-33.992;18.480;2023-04-29T14:32:39;18.80;99.90
37380;DHT22;23252;-33.992;18.480;2023-04-29T14:35:10;18.80;99.90
37380;DHT22;23252;-33.992;18.480;2023-04-29T14:37:36;18.90;99.90
37380;DHT22;23252;-33.992;18.480;2023-04-29T14:40:06;18.80;99.90
37380;DHT22;23252;-33.992;18.480;2023-04-29T14:42:34;18.90;99.90
37380;DHT22;23252;-33.992;18.480;2023-04-29T14:45:04;18.80;99.90
37380;DHT22;23252;-33.992;18.480;2023-04-29T14:47:33;18.80;99.90
37380;DHT22;23252;-33.992;18.480;2023-04-29T14:50:00;18.80;99.90
37380;DHT22;23252;-33.992;18.480;2023-04-29T14:52:27;18.70;99.90
37380;DHT22;23252;-33.992;18.480;2023-04-29T14:54:56;18.80;99.90
37380;DHT22;23252;-33.992;18.480;2023-04-29T14:57:25;18.80;99.90
37380;DHT22;23252;-33.992;18.480;2023-04-29T14:59:52;18.70;99.90
37380;DHT22;23252;-33.992;18.480;2023-04-29T15:02:21;18.70;99.90
37380;DHT22;23252;-33.992;18.480;2023-04-29T15:04:48;18.70;99.90
37380;DHT22;23252;-33.992;18.480;2023-04-29T15:07:15;18.60;99.90
37380;DHT22;23252;-33.992;18.480;2023-04-29T15:09:45;18.60;99.90
37380;DHT22;23252;-33.992;18.480;2023-04-29T15:12:11;18.50;99.90
37380;DHT22;23252;-33.992;18.480;2023-04-29T15:14:45;18.40;99.90
37380;DHT22;23252;-33.992;18.480;2023-04-29T15:17:12;18.30;99.90
37380;DHT22;23252;-33.992;18.480;2023-04-29T15:19:45;18.20;99.90
37380;DHT22;23252;-33.992;18.480;2023-04-29T15:22:11;18.10;99.90
37380;DHT22;23252;-33.992;18.480;2023-04-29T15:24:38;18.00;99.90
37380;DHT22;23252;-33.992;18.480;2023-04-29T15:27:10;18.00;99.90
37380;DHT22;23252;-33.992;18.480;2023-04-29T15:29:37;17.90;99.90
37380;DHT22;23252;-33.992;18.480;2023-04-29T15:32:04;17.80;99.90
37380;DHT22;23252;-33.992;18.480;2023-04-29T15:34:30;17.80;99.90
37380;DHT22;23252;-33.992;18.480;2023-04-29T15:37:00;17.70;99.90
37380;DHT22;23252;-33.992;18.480;2023-04-29T15:39:30;17.70;99.90
37380;DHT22;23252;-33.992;18.480;2023-04-29T15:41:59;17.60;99.90
37380;DHT22;23252;-33.992;18.480;2023-04-29T15:44:29;17.50;99.90
37380;DHT22;23252;-33.992;18.480;2023-04-29T15:46:57;17.50;99.90
37380;DHT22;23252;-33.992;18.480;2023-04-29T15:49:26;17.50;99.90
37380;DHT22;23252;-33.992;18.480;2023-04-29T15:51:56;17.40;99.90
37380;DHT22;23252;-33.992;18.480;2023-04-29T15:54:22;17.40;99.90
37380;DHT22;23252;-33.992;18.480;2023-04-29T15:56:49;17.30;99.90
37380;DHT22;23252;-33.992;18.480;2023-04-29T15:59:16;17.30;99.90
37380;DHT22;23252;-33.992;18.480;2023-04-29T16:01:42;17.30;99.90
37380;DHT22;23252;-33.992;18.480;2023-04-29T16:04:09;17.30;99.90
37380;DHT22;23252;-33.992;18.480;2023-04-29T16:06:38;17.20;99.90
37380;DHT22;23252;-33.992;18.480;2023-04-29T16:09:06;17.10;99.90
37380;DHT22;23252;-33.992;18.480;2023-04-29T16:11:33;17.10;99.90
37380;DHT22;23252;-33.992;18.480;2023-04-29T16:13:59;17.00;99.90
37380;DHT22;23252;-33.992;18.480;2023-04-29T16:16:29;17.00;99.90
37380;DHT22;23252;-33.992;18.480;2023-04-29T16:18:56;17.00;99.90
37380;DHT22;23252;-33.992;18.480;2023-04-29T16:21:23;16.90;99.90
37380;DHT22;23252;-33.992;18.480;2023-04-29T16:23:56;16.90;99.90
37380;DHT22;23252;-33.992;18.480;2023-04-29T16:26:25;16.90;99.90
37380;DHT22;23252;-33.992;18.480;2023-04-29T16:28:52;16.80;99.90
37380;DHT22;23252;-33.992;18.480;2023-04-29T16:31:18;16.80;99.90
37380;DHT22;23252;-33.992;18.480;2023-04-29T16:33:45;16.80;99.90
37380;DHT22;23252;-33.992;18.480;2023-04-29T17:03:56;16.60;99.90
37380;DHT22;23252;-33.992;18.480;2023-04-29T17:06:22;16.60;99.90
37380;DHT22;23252;-33.992;18.480;2023-04-29T17:08:49;16.60;99.90
37380;DHT22;23252;-33.992;18.480;2023-04-29T17:11:16;16.60;99.90
37380;DHT22;23252;-33.992;18.480;2023-04-29T17:13:43;16.60;99.90
37380;DHT22;23252;-33.992;18.480;2023-04-29T17:16:09;16.50;99.90
37380;DHT22;23252;-33.992;18.480;2023-04-29T17:18:36;16.50;99.90
37380;DHT22;23252;-33.992;18.480;2023-04-29T17:21:03;16.50;99.90
37380;DHT22;23252;-33.992;18.480;2023-04-29T17:23:29;16.50;99.90
37380;DHT22;23252;-33.992;18.480;2023-04-29T17:25:56;16.50;99.90
37380;DHT22;23252;-33.992;18.480;2023-04-29T17:28:23;16.50;99.90
37380;DHT22;23252;-33.992;18.480;2023-04-29T17:30:49;16.50;99.90
37380;DHT22;23252;-33.992;18.480;2023-04-29T17:33:16;16.40;99.90
37380;DHT22;23252;-33.992;18.480;2023-04-29T17:35:43;16.40;99.90
37380;DHT22;23252;-33.992;18.480;2023-04-29T17:38:11;16.50;99.90
37380;DHT22;23252;-33.992;18.480;2023-04-29T17:40:37;16.40;99.90
37380;DHT22;23252;-33.992;18.480;2023-04-29T17:43:04;16.50;99.90
37380;DHT22;23252;-33.992;18.480;2023-04-29T17:45:30;16.40;99.90
37380;DHT22;23252;-33.992;18.480;2023-04-29T17:47:57;16.40;99.90
37380;DHT22;23252;-33.992;18.480;2023-04-29T17:50:23;16.40;99.90
37380;DHT22;23252;-33.992;18.480;2023-04-29T17:52:50;16.40;99.90
37380;DHT22;23252;-33.992;18.480;2023-04-29T17:55:16;16.40;99.90
37380;DHT22;23252;-33.992;18.480;2023-04-29T17:57:43;16.40;99.90
37380;DHT22;23252;-33.992;18.480;2023-04-29T18:00:11;16.40;99.90
37380;DHT22;23252;-33.992;18.480;2023-04-29T18:02:37;16.40;99.90